createdAt,value
2023-02-11T00:00:34.616Z,11.07
2023-02-11T00:03:38.875Z,10.18
2023-02-11T00:06:42.419Z,11.13
2023-02-11T00:09:46.643Z,10.77
2023-02-11T00:12:49.921Z,11.20
2023-02-11T00:15:54.711Z,10.95
2023-02-11T00:18:58.666Z,11.02
2023-02-11T00:22:01.970Z,10.63
2023-02-11T00:25:05.265Z,10.93
2023-02-11T00:28:08.779Z,10.32
2023-02-11T00:31:14.095Z,10.73
2023-02-11T00:34:17.460Z,10.07
2023-02-11T00:37:20.787Z,9.65
2023-02-11T00:40:25.233Z,12.13
2023-02-11T00:43:29.337Z,11.13
2023-02-11T00:46:35.885Z,10.73
2023-02-11T00:49:40.628Z,10.25
2023-02-11T00:52:46.083Z,12.50
2023-02-11T00:55:49.811Z,10.07
2023-02-11T00:58:53.866Z,9.50
2023-02-11T01:01:58.624Z,12.13
2023-02-11T01:05:02.488Z,12.40
2023-02-11T01:08:06.926Z,12.23
2023-02-11T01:11:13.901Z,10.43
2023-02-11T01:14:17.313Z,11.38
2023-02-11T01:17:21.974Z,10.50
2023-02-11T01:20:28.086Z,10.57
2023-02-11T01:23:31.564Z,11.25
2023-02-11T01:26:34.962Z,11.27
2023-02-11T01:29:38.772Z,11.38
2023-02-11T01:32:43.535Z,11.02
2023-02-11T01:35:47.485Z,12.23
2023-02-11T01:38:50.846Z,11.85
2023-02-11T01:41:56.875Z,11.10
2023-02-11T01:45:00.201Z,11.32
2023-02-11T01:48:04.933Z,11.23
2023-02-11T01:51:10.049Z,12.05
2023-02-11T01:54:33.856Z,11.13
2023-02-11T01:57:40.406Z,10.45
2023-02-11T02:00:47.225Z,11.45
2023-02-11T02:03:54.265Z,11.15
2023-02-11T02:07:01.917Z,11.30
2023-02-11T02:10:07.546Z,11.20
2023-02-11T02:13:13.094Z,10.93
2023-02-11T02:16:18.190Z,10.80
2023-02-11T02:19:33.079Z,10.15
2023-02-11T02:22:46.920Z,11.50
2023-02-11T02:26:01.525Z,9.95
2023-02-11T02:29:21.399Z,10.43
2023-02-11T02:32:31.608Z,9.88
2023-02-11T02:35:38.333Z,10.80
2023-02-11T02:38:45.791Z,10.60
2023-02-11T02:41:53.691Z,9.77
2023-02-11T02:44:57.671Z,9.35
2023-02-11T02:48:02.389Z,10.27
2023-02-11T02:51:13.333Z,10.13
2023-02-11T02:54:31.902Z,10.05
2023-02-11T02:57:45.415Z,9.15
2023-02-11T03:00:55.324Z,9.23
2023-02-11T03:04:15.080Z,9.38
2023-02-11T03:07:23.258Z,9.43
2023-02-11T03:10:34.318Z,9.30
2023-02-11T03:13:39.884Z,9.70
2023-02-11T03:16:45.452Z,10.23
2023-02-11T03:19:59.545Z,9.10
2023-02-11T03:23:10.851Z,8.20
2023-02-11T03:26:21.269Z,9.02
2023-02-11T03:29:30.176Z,8.75
2023-02-11T03:32:54.088Z,7.65
2023-02-11T03:36:02.032Z,8.20
2023-02-11T03:39:11.761Z,8.43
2023-02-11T03:42:26.162Z,7.25
2023-02-11T03:45:38.319Z,7.10
2023-02-11T03:48:46.178Z,9.15
2023-02-11T03:51:55.426Z,7.70
2023-02-11T03:55:00.046Z,7.95
2023-02-11T03:58:04.411Z,7.82
2023-02-11T04:01:09.746Z,7.30
2023-02-11T04:04:18.622Z,8.35
2023-02-11T04:07:27.518Z,8.32
2023-02-11T04:10:33.629Z,8.05
2023-02-11T04:13:44.858Z,7.63
2023-02-11T04:16:48.404Z,8.52
2023-02-11T04:19:51.963Z,8.38
2023-02-11T04:22:57.077Z,8.18
2023-02-11T04:26:00.989Z,7.30
2023-02-11T04:29:04.372Z,7.60
2023-02-11T04:32:07.775Z,8.52
2023-02-11T04:35:14.240Z,7.38
2023-02-11T04:38:18.856Z,7.28
2023-02-11T04:41:22.187Z,7.32
2023-02-11T04:44:25.532Z,6.95
2023-02-11T04:47:28.865Z,6.38
2023-02-11T04:50:32.217Z,7.25
2023-02-11T04:53:37.086Z,7.72
2023-02-11T04:56:40.530Z,6.80
2023-02-11T04:59:45.149Z,6.40
2023-02-11T05:02:49.395Z,7.00
2023-02-11T05:05:52.954Z,6.32
2023-02-11T05:08:57.701Z,7.28
2023-02-11T05:12:01.015Z,6.60
2023-02-11T05:15:04.388Z,7.00
2023-02-11T05:18:07.794Z,6.10
2023-02-11T05:21:12.153Z,7.30
2023-02-11T05:24:16.753Z,7.35
2023-02-11T05:27:20.085Z,7.60
2023-02-11T05:30:23.501Z,7.43
2023-02-11T05:33:26.920Z,7.30
2023-02-11T05:36:33.623Z,6.38
2023-02-11T05:39:38.308Z,6.57
2023-02-11T05:42:42.449Z,6.53
2023-02-11T05:45:45.658Z,6.40
2023-02-11T05:48:48.973Z,7.70
2023-02-11T05:51:52.244Z,6.82
2023-02-11T05:54:56.856Z,7.75
2023-02-11T05:58:00.196Z,7.35
2023-02-11T06:01:03.570Z,7.13
2023-02-11T06:04:07.065Z,7.68
2023-02-11T06:07:10.376Z,6.57
2023-02-11T06:10:15.036Z,6.72
2023-02-11T06:13:19.603Z,7.65
2023-02-11T06:16:22.958Z,7.32
2023-02-11T06:19:26.319Z,6.30
2023-02-11T06:22:29.660Z,6.50
2023-02-11T06:25:34.254Z,6.63
2023-02-11T06:28:40.718Z,6.15
2023-02-11T06:31:45.248Z,5.53
2023-02-11T06:34:48.903Z,5.85
2023-02-11T06:37:53.760Z,5.60
2023-02-11T06:40:58.376Z,4.88
2023-02-11T06:44:01.655Z,5.40
2023-02-11T06:47:04.948Z,5.88
2023-02-11T06:50:08.874Z,4.80
2023-02-11T06:53:12.130Z,5.18
2023-02-11T06:56:17.715Z,5.38
2023-02-11T06:59:21.452Z,5.28
2023-02-11T07:02:24.978Z,5.57
2023-02-11T07:05:28.291Z,6.43
2023-02-11T07:08:31.588Z,6.22
2023-02-11T07:11:36.289Z,7.22
2023-02-11T07:14:40.541Z,6.53
2023-02-11T07:17:43.839Z,7.30
2023-02-11T07:20:47.128Z,6.57
2023-02-11T07:23:52.225Z,5.32
2023-02-11T07:26:56.838Z,6.07
2023-02-11T07:30:01.074Z,6.18
2023-02-11T07:33:04.464Z,5.38
2023-02-11T07:36:08.730Z,5.47
2023-02-11T07:39:12.367Z,5.15
2023-02-11T07:42:17.405Z,5.00
2023-02-11T07:45:21.085Z,4.85
2023-02-11T07:48:24.283Z,5.47
2023-02-11T07:51:35.771Z,3.90
2023-02-11T07:54:46.069Z,4.50
2023-02-11T07:57:50.729Z,4.65
2023-02-11T08:00:54.010Z,4.95
2023-02-11T08:03:57.972Z,4.55
2023-02-11T08:07:01.329Z,4.07
2023-02-11T08:10:05.831Z,4.30
2023-02-11T08:13:10.572Z,5.45
2023-02-11T08:16:19.585Z,5.22
2023-02-11T08:19:22.894Z,5.53
2023-02-11T08:22:26.139Z,5.07
2023-02-11T08:25:29.701Z,5.07
2023-02-11T08:28:36.725Z,4.38
2023-02-11T08:31:41.211Z,4.85
2023-02-11T08:34:45.192Z,3.83
2023-02-11T08:37:48.635Z,4.43
2023-02-11T08:40:52.180Z,4.45
2023-02-11T08:43:57.471Z,4.32
2023-02-11T08:47:00.764Z,4.30
2023-02-11T08:50:04.171Z,4.25
2023-02-11T08:53:08.696Z,3.90
2023-02-11T08:56:13.560Z,4.03
2023-02-11T08:59:18.428Z,4.93
2023-02-11T09:02:21.797Z,4.18
2023-02-11T09:05:25.434Z,4.72
2023-02-11T09:08:28.896Z,4.15
2023-02-11T09:11:34.288Z,4.20
2023-02-11T09:14:39.269Z,4.53
2023-02-11T09:17:42.555Z,4.22
2023-02-11T09:20:49.388Z,4.18
2023-02-11T09:23:53.345Z,5.03
2023-02-11T09:27:06.760Z,4.43
2023-02-11T09:30:49.662Z,3.67
2023-02-11T09:33:54.985Z,3.88
2023-02-11T09:36:58.293Z,4.25
2023-02-11T09:40:01.666Z,4.30
2023-02-11T09:43:06.786Z,4.32
2023-02-11T09:46:14.804Z,4.55
2023-02-11T09:49:21.226Z,4.82
2023-02-11T09:52:29.143Z,4.40
2023-02-11T09:55:34.102Z,4.28
2023-02-11T09:58:37.928Z,4.18
2023-02-11T10:01:46.654Z,3.85
2023-02-11T10:05:17.637Z,4.03
2023-02-11T10:08:25.441Z,4.00
2023-02-11T10:11:32.608Z,3.45
2023-02-11T10:14:50.939Z,3.47
2023-02-11T10:18:07.135Z,3.88
2023-02-11T10:28:59.519Z,3.60
2023-02-11T10:32:09.388Z,4.00
2023-02-11T10:35:18.636Z,4.32
2023-02-11T10:38:42.088Z,3.53
2023-02-11T10:41:53.403Z,3.80
2023-02-11T10:45:01.692Z,3.67
2023-02-11T10:48:16.507Z,3.80
2023-02-11T10:55:55.329Z,3.10
2023-02-11T10:59:39.436Z,3.83
2023-02-11T11:02:57.312Z,3.55
2023-02-11T11:06:08.540Z,3.38
2023-02-11T11:09:28.701Z,3.25
2023-02-11T11:13:03.931Z,3.47
2023-02-11T11:17:00.349Z,2.95
2023-02-11T11:21:10.252Z,3.40
2023-02-11T11:33:03.071Z,3.13
2023-02-11T11:48:23.821Z,2.88
2023-02-11T11:51:27.658Z,2.53
2023-02-11T11:54:32.846Z,2.88
2023-02-11T12:02:22.954Z,3.55
2023-02-11T12:09:45.912Z,9.45
2023-02-11T12:13:06.013Z,2.42
2023-02-11T12:16:14.452Z,2.45
2023-02-11T12:19:37.754Z,2.63
2023-02-11T12:22:48.815Z,2.20
2023-02-11T12:25:58.517Z,2.17
2023-02-11T12:29:06.921Z,1.80
2023-02-11T12:32:19.615Z,2.10
2023-02-11T12:35:30.080Z,3.33
2023-02-11T12:38:47.338Z,3.85
2023-02-11T12:42:25.436Z,1.60
2023-02-11T12:46:18.490Z,1.88
2023-02-11T12:49:35.110Z,1.40
2023-02-11T12:52:48.109Z,1.50
2023-02-11T12:56:21.319Z,2.20
2023-02-11T12:59:43.065Z,1.52
2023-02-11T13:02:50.978Z,1.45
2023-02-11T13:06:03.124Z,2.00
2023-02-11T13:09:08.034Z,1.55
2023-02-11T13:12:32.057Z,1.25
2023-02-11T13:15:36.916Z,1.15
2023-02-11T13:22:12.889Z,0.88
2023-02-11T13:25:21.557Z,0.77
2023-02-11T13:28:48.340Z,0.75
2023-02-11T13:31:57.058Z,0.95
2023-02-11T13:35:00.721Z,1.60
2023-02-11T13:38:08.182Z,0.73
2023-02-11T13:41:19.081Z,2.17
2023-02-11T13:44:25.126Z,1.10
2023-02-11T13:47:31.622Z,1.50
2023-02-11T13:50:38.889Z,1.45
2023-02-11T13:53:47.103Z,1.13
2023-02-11T13:57:06.240Z,1.10
2023-02-11T14:00:24.397Z,1.00
2023-02-11T14:03:53.696Z,1.30
2023-02-11T14:07:35.761Z,1.20
2023-02-11T14:10:56.430Z,1.15
2023-02-11T14:14:16.820Z,0.73
2023-02-11T14:17:30.770Z,1.08
2023-02-11T14:20:37.577Z,1.52
2023-02-11T14:23:41.180Z,1.02
2023-02-11T14:26:48.559Z,1.33
2023-02-11T14:29:55.565Z,1.70
2023-02-11T14:33:06.519Z,1.92
2023-02-11T14:36:33.096Z,1.23
2023-02-11T14:39:43.530Z,1.35
2023-02-11T14:42:49.546Z,0.82
2023-02-11T14:45:55.270Z,1.27
2023-02-11T14:48:59.911Z,1.00
2023-02-11T14:52:07.612Z,1.20
2023-02-11T14:55:18.706Z,1.02
2023-02-11T14:58:23.091Z,1.10
2023-02-11T15:01:31.313Z,0.93
2023-02-11T15:04:36.269Z,0.90
2023-02-11T15:07:44.301Z,1.08
2023-02-11T15:10:47.534Z,1.35
2023-02-11T15:14:49.864Z,0.73
2023-02-11T15:17:55.161Z,1.00
2023-02-11T15:20:58.510Z,0.85
2023-02-11T15:24:07.189Z,1.80
2023-02-11T15:27:15.360Z,1.10
2023-02-11T15:30:29.652Z,0.98
2023-02-11T15:33:38.201Z,1.00
2023-02-11T15:36:49.353Z,1.30
2023-02-11T15:39:54.353Z,1.10
2023-02-11T15:42:59.087Z,1.10
2023-02-11T15:46:03.312Z,1.85
2023-02-11T15:49:09.004Z,0.90
2023-02-11T15:52:44.110Z,1.30
2023-02-11T15:55:49.415Z,1.98
2023-02-11T15:58:54.429Z,1.60
2023-02-11T16:01:59.801Z,1.15
2023-02-11T16:05:04.901Z,1.48
2023-02-11T16:08:15.411Z,1.27
2023-02-11T16:11:26.582Z,1.45
2023-02-11T16:14:31.141Z,1.20
2023-02-11T16:17:34.571Z,1.45
2023-02-11T16:20:38.362Z,1.13
2023-02-11T16:23:43.148Z,1.58
2023-02-11T16:26:50.527Z,1.80
2023-02-11T16:29:54.090Z,1.50
2023-02-11T16:32:57.590Z,1.63
2023-02-11T16:36:02.232Z,1.67
2023-02-11T16:39:05.674Z,2.00
2023-02-11T16:42:11.709Z,1.92
2023-02-11T16:45:15.390Z,1.90
2023-02-11T16:48:20.070Z,2.42
2023-02-11T16:51:23.639Z,1.88
2023-02-11T16:54:27.064Z,1.90
2023-02-11T16:57:32.839Z,1.75
2023-02-11T17:00:36.317Z,1.70
2023-02-11T17:03:41.072Z,1.98
2023-02-11T17:06:44.634Z,1.75
2023-02-11T17:09:48.497Z,2.03
2023-02-11T17:12:54.060Z,1.88
2023-02-11T17:15:57.638Z,2.40
2023-02-11T17:19:01.064Z,1.95
2023-02-11T17:22:05.329Z,1.92
2023-02-11T17:25:09.261Z,1.95
2023-02-11T17:28:14.271Z,1.63
2023-02-11T17:31:29.704Z,1.65
2023-02-11T17:47:05.209Z,2.15
2023-02-11T17:50:40.647Z,1.48
2023-02-11T17:54:17.379Z,1.90
2023-02-11T17:57:21.005Z,1.85
2023-02-11T18:00:25.785Z,2.00
2023-02-11T18:03:29.082Z,2.30
2023-02-11T18:06:33.726Z,1.95
2023-02-11T18:09:42.032Z,2.15
2023-02-11T18:12:45.468Z,2.20
2023-02-11T18:15:52.620Z,2.45
2023-02-11T18:18:56.024Z,2.38
2023-02-11T18:22:01.076Z,2.53
2023-02-11T18:25:04.646Z,2.20
2023-02-11T18:28:11.097Z,2.05
2023-02-11T18:31:16.418Z,2.50
2023-02-11T18:34:19.743Z,2.60
2023-02-11T18:37:22.949Z,2.47
2023-02-11T18:40:26.135Z,3.15
2023-02-11T18:43:42.892Z,3.47
2023-02-11T18:46:47.477Z,3.22
2023-02-11T18:49:51.001Z,3.03
2023-02-11T18:52:54.310Z,3.13
2023-02-11T18:55:57.597Z,3.28
2023-02-11T18:59:02.356Z,3.85
2023-02-11T19:02:10.883Z,3.22
2023-02-11T19:05:14.121Z,3.80
2023-02-11T19:08:20.567Z,3.92
2023-02-11T19:11:44.592Z,3.38
2023-02-11T19:14:47.935Z,3.13
2023-02-11T19:17:52.527Z,3.72
2023-02-11T19:20:55.885Z,3.70
2023-02-11T19:23:59.972Z,3.33
2023-02-11T19:27:04.320Z,3.25
2023-02-11T19:30:08.253Z,3.38
2023-02-11T19:33:12.946Z,4.32
2023-02-11T19:36:18.425Z,4.22
2023-02-11T19:39:23.794Z,4.07
2023-02-11T19:42:27.725Z,3.70
2023-02-11T19:45:31.132Z,4.07
2023-02-11T19:48:36.033Z,4.20
2023-02-11T19:51:39.694Z,3.65
2023-02-11T19:54:45.716Z,3.88
2023-02-11T19:57:49.050Z,3.42
2023-02-11T20:00:52.434Z,3.75
2023-02-11T20:03:57.750Z,3.80
2023-02-11T20:07:01.055Z,3.28
2023-02-11T20:10:04.470Z,3.47
2023-02-11T20:13:07.865Z,3.38
2023-02-11T20:16:13.936Z,3.60
2023-02-11T20:19:19.474Z,3.53
2023-02-11T20:22:22.795Z,2.80
2023-02-11T20:25:26.768Z,3.25
2023-02-11T20:28:30.044Z,2.67
2023-02-11T20:31:34.080Z,3.15
2023-02-11T20:34:39.002Z,3.08
2023-02-11T20:37:44.108Z,2.92
2023-02-11T20:40:47.642Z,2.58
2023-02-11T20:43:53.031Z,2.97
2023-02-11T20:46:56.425Z,2.40
2023-02-11T20:50:01.043Z,2.20
2023-02-11T20:53:04.554Z,2.95
2023-02-11T20:56:09.185Z,3.08
2023-02-11T20:59:14.698Z,2.95
2023-02-11T21:02:17.998Z,2.65
2023-02-11T21:05:22.824Z,2.42
2023-02-11T21:08:26.161Z,2.67
2023-02-11T21:11:31.004Z,2.75
2023-02-11T21:14:34.613Z,2.70
2023-02-11T21:17:37.938Z,3.17
2023-02-11T21:20:44.784Z,2.88
2023-02-11T21:23:48.100Z,2.95
2023-02-11T21:26:51.374Z,3.45
2023-02-11T21:29:54.921Z,3.13
2023-02-11T21:32:59.493Z,3.38
2023-02-11T21:36:07.668Z,3.67
2023-02-11T21:39:13.560Z,3.17
2023-02-11T21:42:45.739Z,3.17
2023-02-11T21:45:50.756Z,3.53
2023-02-11T21:48:54.251Z,3.13
2023-02-11T21:51:58.836Z,3.97
2023-02-11T21:55:02.116Z,4.05
2023-02-11T21:58:06.057Z,3.83
2023-02-11T22:01:13.090Z,4.43
2023-02-11T22:04:16.931Z,3.90
2023-02-11T22:07:22.619Z,3.47
2023-02-11T22:10:25.931Z,4.13
2023-02-11T22:13:29.395Z,4.05
2023-02-11T22:16:32.866Z,3.65
2023-02-11T22:19:36.412Z,3.70
2023-02-11T22:22:41.069Z,3.83
2023-02-11T22:25:44.312Z,4.72
2023-02-11T22:28:47.755Z,4.05
2023-02-11T22:31:51.058Z,3.83
2023-02-11T22:34:54.290Z,3.95
2023-02-11T22:37:58.926Z,3.95
2023-02-11T22:41:06.496Z,4.10
2023-02-11T22:44:10.150Z,4.32
2023-02-11T22:47:13.418Z,4.13
2023-02-11T22:50:16.718Z,4.40
2023-02-11T22:53:21.463Z,4.20
2023-02-11T22:56:25.319Z,5.05
2023-02-11T22:59:28.553Z,4.25
2023-02-11T23:02:32.940Z,3.95
2023-02-11T23:05:39.695Z,4.72
2023-02-11T23:08:44.712Z,4.05
2023-02-11T23:11:49.745Z,4.20
2023-02-11T23:14:53.036Z,4.18
2023-02-11T23:17:56.599Z,3.90
2023-02-11T23:21:03.851Z,4.82
2023-02-11T23:24:09.527Z,4.10
2023-02-11T23:27:13.488Z,3.72
2023-02-11T23:30:16.925Z,4.03
2023-02-11T23:33:22.254Z,4.32
2023-02-11T23:36:25.616Z,5.07
2023-02-11T23:39:30.290Z,4.65
2023-02-11T23:42:33.544Z,4.55
2023-02-11T23:45:36.827Z,4.65
2023-02-11T23:48:40.460Z,4.90
2023-02-11T23:51:44.301Z,4.68
2023-02-11T23:54:49.337Z,4.97
2023-02-11T23:57:52.627Z,4.18
